Terminal Aerodrome Forecast
Issued by NWS

Home | Current Version | Previous Version | Text Only | Print | Product List | Glossary Off
Versions: 1 2 3 4 5 6 7 8 9 10 11 12 13 14 15 16 17 18 19 20 21 22 23 24 25 26 27 28 29 30 31

853
FTUS43 KLOT 151145
TAFORD
TAF
KORD 151145Z 1512/1618 33004KT P6SM FEW050
     FM151500 01007KT P6SM SCT050
     FM151900 04010KT P6SM SCT050
     FM160300 05006KT P6SM SCT250
     FM161500 13005KT P6SM BKN250=

USA.gov is the U.S. government's official web portal to all federal, state and local government web resources and services.